Time;durP1;ratioP1;P1;durP2;ratioP2;P2;SDS_P1;SDS_P2;PMS_P1;PMS_P2;Temp;Humidity;BMP_temperature;BMP_pressure;BME280_temperature;BME280_humidity;BME280_pressure;Samples;Min_cycle;Max_cycle;Signal;HPM_P1;HPM_P2
2021/03/11 00:00:35;;;;;;;32.25;17.05;;;6.80;99.90;;;7.16;86.20;99453.28;5053275;28;20025;-81
2021/03/11 00:03:07;;;;;;;30.75;16.80;;;6.80;99.90;;;7.08;85.77;99448.75;5051548;28;20369;-78
2021/03/11 00:05:34;;;;;;;28.85;17.30;;;6.80;99.90;;;7.19;85.66;99462.88;5052871;28;20029;-81
2021/03/11 00:08:02;;;;;;;29.40;16.90;;;6.80;99.90;;;7.28;84.95;99469.00;5064315;28;20086;-78
2021/03/11 00:10:30;;;;;;;27.83;16.75;;;6.90;99.90;;;7.24;85.19;99451.47;5072610;28;20543;-79
2021/03/11 00:12:56;;;;;;;32.38;17.88;;;6.90;99.90;;;7.32;84.24;99444.91;5072029;28;20036;-78
2021/03/11 00:15:24;;;;;;;28.42;16.52;;;7.00;99.90;;;7.42;83.33;99439.53;5071123;28;20025;-80
2021/03/11 00:17:51;;;;;;;30.40;16.00;;;7.00;99.90;;;7.40;83.19;99421.66;5072831;28;20100;-79
2021/03/11 00:20:23;;;;;;;26.45;15.63;;;7.10;99.90;;;7.50;83.24;99434.13;5072931;28;20028;-80
2021/03/11 00:22:51;;;;;;;27.75;16.42;;;7.10;99.90;;;7.44;82.71;99428.09;5072937;28;20369;-79
2021/03/11 00:25:20;;;;;;;25.15;14.68;;;7.20;99.90;;;7.55;82.38;99428.28;5073862;28;20487;-80
2021/03/11 00:27:48;;;;;;;28.20;15.80;;;7.20;99.90;;;7.58;82.01;99442.22;5071885;28;20028;-81
2021/03/11 00:30:16;;;;;;;25.80;16.23;;;7.20;99.90;;;7.51;82.45;99402.41;5072012;28;20495;-80
2021/03/11 00:32:43;;;;;;;25.15;15.13;;;7.20;99.90;;;7.59;82.48;99412.47;5071979;28;20033;-81
2021/03/11 00:35:12;;;;;;;25.77;15.05;;;7.20;99.90;;;7.62;81.89;99401.44;5072009;28;20033;-80
2021/03/11 00:37:42;;;;;;;23.80;14.18;;;7.20;99.90;;;7.56;81.71;99410.44;5072785;28;20440;-81
2021/03/11 00:40:13;;;;;;;23.17;14.35;;;7.30;99.90;;;7.59;82.09;99426.38;5072275;28;20511;-81
2021/03/11 00:42:40;;;;;;;24.85;14.60;;;7.30;99.90;;;7.69;81.62;99403.53;5071918;28;20044;-80
2021/03/11 00:45:11;;;;;;;29.70;15.10;;;7.30;99.90;;;7.63;82.10;99416.94;5072137;28;20025;-80
2021/03/11 00:47:41;;;;;;;27.67;15.95;;;7.30;99.90;;;7.65;82.03;99405.44;5075016;28;20097;-79
2021/03/11 00:50:17;;;;;;;26.63;15.73;;;7.30;99.90;;;7.72;81.47;99409.16;5078322;28;20067;-80
2021/03/11 00:52:43;;;;;;;;;;;7.30;99.90;;;7.69;80.82;99401.56;5076805;28;20041;-80
2021/03/11 00:55:12;;;;;;;26.10;14.63;;;7.30;99.90;;;7.66;81.32;99399.53;5077830;28;19969;-80
2021/03/11 00:57:39;;;;;;;24.98;15.02;;;7.30;99.90;;;7.69;81.36;99387.69;5077753;28;20069;-82
2021/03/11 01:00:12;;;;;;;25.17;14.80;;;7.40;99.90;;;7.72;81.02;99400.03;5077939;28;20029;-81
2021/03/11 01:02:38;;;;;;;22.80;14.13;;;7.40;99.90;;;7.78;80.92;99385.44;5078613;28;20025;-80
2021/03/11 01:05:06;;;;;;;25.95;15.32;;;7.50;99.90;;;7.76;81.38;99384.22;5076990;28;20151;-78
2021/03/11 01:07:32;;;;;;;25.40;14.73;;;7.40;99.90;;;7.67;81.30;99378.91;5068672;28;20029;-79
2021/03/11 01:09:59;;;;;;;25.17;15.00;;;7.40;99.90;;;7.73;81.75;99365.50;5055716;28;20025;-79
2021/03/11 01:12:25;;;;;;;26.33;15.23;;;7.40;99.90;;;7.76;81.70;99364.78;5057172;28;20025;-82
2021/03/11 01:14:51;;;;;;;26.40;14.88;;;7.40;99.90;;;7.64;82.51;99348.28;5057596;28;20040;-79
2021/03/11 01:17:17;;;;;;;26.40;15.23;;;7.40;99.90;;;7.67;82.07;99340.00;5055141;28;20112;-78
2021/03/11 01:19:44;;;;;;;31.38;16.15;;;7.30;99.90;;;7.61;83.68;99337.91;5056377;28;20115;-78
2021/03/11 01:22:09;;;;;;;24.20;15.00;;;7.30;99.90;;;7.54;84.21;99337.78;5055446;28;20059;-78
2021/03/11 01:24:35;;;;;;;25.60;15.63;;;7.20;99.90;;;7.45;84.53;99323.31;5056594;28;20029;-79
2021/03/11 01:27:01;;;;;;;25.85;15.45;;;7.20;99.90;;;7.39;85.01;99318.06;5056851;28;20099;-79
2021/03/11 01:29:27;;;;;;;29.13;14.25;;;7.20;99.90;;;7.40;85.46;99313.31;5056927;28;20041;-80
2021/03/11 01:31:54;;;;;;;28.70;15.98;;;7.10;99.90;;;7.46;85.64;99309.06;5056580;28;20082;-81
2021/03/11 01:34:20;;;;;;;26.98;15.23;;;7.10;99.90;;;7.45;85.94;99303.88;5057914;28;20029;-81
2021/03/11 01:36:46;;;;;;;27.73;15.13;;;7.10;99.90;;;7.47;86.10;99305.13;5072311;28;20040;-77
2021/03/11 01:39:12;;;;;;;24.88;15.32;;;7.10;99.90;;;7.49;86.00;99302.75;5073569;28;20063;-78
2021/03/11 01:41:39;;;;;;;24.95;14.52;;;7.10;99.90;;;7.48;86.41;99273.38;5055411;28;20199;-79
2021/03/11 01:44:06;;;;;;;25.23;15.65;;;7.00;99.90;;;7.38;86.76;99296.22;5055094;28;20041;-79
2021/03/11 01:46:32;;;;;;;33.67;14.88;;;7.00;99.90;;;7.36;87.07;99279.91;5055872;28;20047;-80
2021/03/11 01:48:58;;;;;;;25.48;15.02;;;7.00;99.90;;;7.38;87.13;99258.13;5055879;28;20484;-77
2021/03/11 01:51:27;;;;;;;23.80;14.55;;;7.00;99.90;;;7.37;87.34;99264.88;5057103;28;20036;-79
2021/03/11 01:53:53;;;;;;;26.85;15.30;;;7.00;99.90;;;7.22;88.15;99251.91;5056276;28;20072;-80
2021/03/11 01:56:20;;;;;;;27.85;15.38;;;6.90;99.90;;;7.25;88.40;99255.91;5056131;28;20036;-78
2021/03/11 01:58:47;;;;;;;25.27;14.90;;;6.90;99.90;;;7.31;88.07;99240.53;5055527;28;20477;-79
2021/03/11 02:01:13;;;;;;;24.75;14.02;;;7.00;99.90;;;7.30;88.05;99245.28;5055962;28;20063;-79
2021/03/11 02:03:41;;;;;;;26.75;14.43;;;7.00;99.90;;;7.34;88.31;99232.28;5057305;28;20069;-78
2021/03/11 02:06:07;;;;;;;29.85;15.32;;;7.00;99.90;;;7.29;88.75;99209.53;5055797;28;20033;-79
2021/03/11 02:08:33;;;;;;;27.50;14.82;;;7.00;99.90;;;7.22;88.25;99223.34;5071740;28;20031;-81
2021/03/11 02:10:59;;;;;;;27.13;14.77;;;7.00;99.90;;;7.37;88.43;99211.28;5075668;28;20025;-81
2021/03/11 02:13:53;;;;;;;25.20;14.85;;;7.00;99.90;;;7.37;88.14;99214.06;5074375;28;20037;-78
2021/03/11 02:16:40;;;;;;;25.75;15.10;;;7.00;99.90;;;7.29;88.71;99192.88;5077901;28;20020;-81
2021/03/11 02:19:59;;;;;;;23.67;14.10;;;7.00;99.90;;;7.24;89.02;99185.69;5077003;28;20051;-77
2021/03/11 02:23:15;;;;;;;24.25;14.18;;;7.00;99.90;;;7.31;88.16;99180.25;5076926;28;20064;-78
2021/03/11 02:26:44;;;;;;;25.52;14.35;;;7.00;99.90;;;7.37;87.93;99151.00;5078033;28;20035;-76
2021/03/11 02:29:17;;;;;;;24.85;13.07;;;7.00;99.90;;;7.39;87.50;99162.50;5064303;28;20576;-77
2021/03/11 02:31:45;;;;;;;23.45;13.75;;;7.10;99.90;;;7.50;86.82;99150.78;5077584;28;20032;-79
2021/03/11 02:34:25;;;;;;;21.27;14.23;;;7.20;99.90;;;7.44;86.99;99119.75;5076521;28;20112;-79
2021/03/11 02:36:58;;;;;;;19.75;12.02;;;7.20;99.90;;;7.43;86.55;99137.56;5076632;28;20032;-78
2021/03/11 02:39:30;;;;;;;20.42;12.07;;;7.20;99.90;;;7.54;85.68;99121.09;5077916;28;20029;-77
2021/03/11 02:41:59;;;;;;;20.70;12.35;;;7.20;99.90;;;7.64;84.79;99123.22;5077340;28;20392;-77
2021/03/11 02:44:27;;;;;;;24.02;11.90;;;7.30;99.90;;;7.65;84.89;99120.03;5075789;28;20028;-77
2021/03/11 02:46:56;;;;;;;24.85;13.32;;;7.30;99.90;;;7.73;84.30;99110.66;5077305;28;20051;-77
2021/03/11 02:49:23;;;;;;;20.90;11.93;;;7.30;99.90;;;7.77;84.06;99096.81;5075665;28;20056;-77
2021/03/11 02:51:53;;;;;;;22.23;11.63;;;7.30;99.90;;;7.77;83.36;99108.69;5075976;28;20036;-78
2021/03/11 02:54:22;;;;;;;19.02;11.25;;;7.40;99.90;;;7.83;83.35;99092.50;5077496;28;20032;-78
2021/03/11 02:56:52;;;;;;;20.25;11.60;;;7.50;99.90;;;7.84;82.91;99081.00;5077155;28;20029;-81
2021/03/11 02:59:20;;;;;;;17.17;10.50;;;7.50;99.90;;;7.84;82.62;99091.31;5075522;28;20132;-79
2021/03/11 03:01:48;;;;;;;17.20;10.43;;;7.50;99.90;;;7.88;83.04;99075.50;5075421;28;20025;-77
2021/03/11 03:04:17;;;;;;;15.77;9.75;;;7.50;99.90;;;7.89;82.15;99064.00;5077305;28;20472;-77
2021/03/11 03:06:45;;;;;;;15.85;9.18;;;7.60;99.90;;;7.91;82.42;99053.31;5076336;28;20373;-77
2021/03/11 03:09:11;;;;;;;16.42;10.10;;;7.60;99.90;;;7.95;82.45;99045.00;5056522;28;20017;-76
2021/03/11 03:11:39;;;;;;;16.60;10.02;;;7.60;99.90;;;8.00;82.01;99053.00;5057153;28;20485;-77
2021/03/11 03:14:08;;;;;;;17.08;10.00;;;7.60;99.90;;;8.02;82.40;99049.84;5055747;28;20029;-77
2021/03/11 03:16:37;;;;;;;12.90;8.50;;;7.60;99.90;;;8.07;82.10;99063.41;5057197;28;20119;-77
2021/03/11 03:19:05;;;;;;;16.85;9.20;;;7.70;99.90;;;8.10;82.03;99048.72;5057668;28;20033;-79
2021/03/11 03:21:33;;;;;;;15.45;9.32;;;7.70;99.90;;;8.07;81.85;99036.41;5059853;28;20082;-77
2021/03/11 03:24:02;;;;;;;15.73;8.85;;;7.70;99.90;;;8.14;81.89;99027.34;5061890;28;20089;-78
2021/03/11 03:26:29;;;;;;;11.93;8.30;;;7.70;99.90;;;8.05;82.46;98996.25;5062599;28;20025;-77
2021/03/11 03:28:55;;;;;;;14.20;8.15;;;7.70;99.90;;;8.10;82.70;98984.78;5064321;28;20052;-78
2021/03/11 03:31:22;;;;;;;16.35;8.63;;;7.70;99.90;;;8.14;82.39;98999.53;5056329;28;20033;-76
2021/03/11 03:33:48;;;;;;;15.20;8.27;;;7.70;99.90;;;8.12;82.52;99002.72;5057023;28;20104;-77
2021/03/11 03:36:14;;;;;;;13.07;8.20;;;7.70;99.90;;;8.04;83.23;99001.03;5056243;28;20061;-78
2021/03/11 03:38:40;;;;;;;12.63;7.30;;;7.70;99.90;;;8.11;83.27;99001.09;5056359;28;20380;-78
2021/03/11 03:41:10;;;;;;;11.90;7.05;;;7.80;99.90;;;8.20;83.23;98998.81;5055007;28;20063;-76
2021/03/11 03:43:41;;;;;;;10.93;6.80;;;7.80;99.90;;;8.11;83.63;98994.72;5055862;28;20048;-76
2021/03/11 03:46:13;;;;;;;10.82;7.00;;;7.80;99.90;;;8.15;84.24;99001.13;5055464;28;20552;-79
2021/03/11 03:48:47;;;;;;;9.57;6.15;;;7.80;99.90;;;8.12;85.04;99008.28;5057260;28;20025;-79
2021/03/11 03:51:20;;;;;;;9.40;5.53;;;7.80;99.90;;;8.17;85.25;98993.19;5056998;28;20035;-78
2021/03/11 03:54:03;;;;;;;9.27;5.47;;;7.80;99.90;;;8.20;85.52;99000.78;5076302;28;20113;-80
2021/03/11 03:56:44;;;;;;;8.57;5.25;;;7.80;99.90;;;8.17;86.36;98995.97;5060847;28;20037;-77
2021/03/11 03:59:17;;;;;;;8.57;5.82;;;7.80;99.90;;;8.07;88.13;99005.81;5054348;28;20029;-80
2021/03/11 04:01:43;;;;;;;8.25;5.40;;;7.80;99.90;;;8.06;88.71;98981.97;5055928;28;20040;-81
2021/03/11 04:04:13;;;;;;;8.20;5.20;;;7.70;99.90;;;8.00;89.37;98988.25;5056650;28;20028;-78
2021/03/11 04:06:42;;;;;;;10.77;5.28;;;7.60;99.90;;;7.94;89.35;98999.72;5056474;28;20179;-80
2021/03/11 04:09:12;;;;;;;8.82;5.43;;;7.60;99.90;;;8.04;89.86;98976.00;5075075;28;20037;-79
2021/03/11 04:11:45;;;;;;;7.60;6.07;;;7.60;99.90;;;7.99;89.90;98965.22;5076643;28;20029;-77
2021/03/11 04:14:13;;;;;;;8.60;5.15;;;7.60;99.90;;;7.92;90.22;98965.97;5077206;28;20399;-79
2021/03/11 04:16:44;;;;;;;8.32;4.95;;;7.60;99.90;;;7.83;91.95;98982.13;5075595;28;20093;-76
2021/03/11 04:19:12;;;;;;;8.90;4.90;;;7.50;99.90;;;7.86;91.99;98975.81;5074461;28;20027;-78
2021/03/11 04:21:39;;;;;;;8.68;5.40;;;7.50;99.90;;;7.83;92.79;98961.88;5076480;28;20465;-77
2021/03/11 04:24:07;;;;;;;6.38;4.53;;;7.50;99.90;;;7.88;92.20;98948.44;5079353;28;20034;-78
2021/03/11 04:26:37;;;;;;;8.98;5.13;;;7.50;99.90;;;7.87;92.70;98938.50;5077904;28;20471;-79
2021/03/11 04:29:06;;;;;;;9.00;5.30;;;7.50;99.90;;;7.91;92.46;98928.22;5078402;28;20032;-77
2021/03/11 04:31:33;;;;;;;10.77;5.45;;;7.50;99.90;;;7.85;93.04;98921.41;5079470;28;20024;-79
2021/03/11 04:34:01;;;;;;;6.78;4.50;;;7.50;99.90;;;7.82;93.35;98933.28;5078485;28;20028;-79
2021/03/11 04:36:29;;;;;;;8.07;4.97;;;7.50;99.90;;;7.88;93.42;98931.75;5077568;28;20028;-79
2021/03/11 04:38:56;;;;;;;7.43;5.47;;;7.50;99.90;;;7.85;93.36;98912.25;5079037;28;20036;-78
2021/03/11 04:41:24;;;;;;;7.13;4.70;;;7.50;99.90;;;7.90;93.11;98921.03;5077295;28;20055;-78
2021/03/11 04:43:51;;;;;;;7.10;4.88;;;7.50;99.90;;;7.97;92.92;98929.47;5077225;28;20024;-76
2021/03/11 04:46:23;;;;;;;7.35;5.07;;;7.50;99.90;;;8.05;91.64;98954.56;5078972;28;20052;-77
2021/03/11 04:48:50;;;;;;;8.13;4.22;;;7.60;99.90;;;8.15;91.33;98912.97;5080396;28;20050;-76
2021/03/11 04:51:18;;;;;;;8.27;4.80;;;7.70;99.90;;;8.10;91.32;98920.84;5078404;28;20052;-78
2021/03/11 04:53:46;;;;;;;7.50;4.85;;;7.80;99.90;;;8.20;90.83;98903.44;5079631;28;20079;-79
2021/03/11 04:56:12;;;;;;;6.88;4.70;;;7.80;99.90;;;8.18;90.61;98914.97;5078745;28;20512;-76
2021/03/11 04:58:40;;;;;;;6.13;4.75;;;7.80;99.90;;;8.27;89.92;98921.00;5078527;28;20048;-77
2021/03/11 05:01:15;;;;;;;6.95;5.10;;;7.90;99.90;;;8.33;89.56;98916.72;5079195;28;20024;-80
2021/03/11 05:03:46;;;;;;;7.40;4.65;;;7.90;99.90;;;8.43;88.63;98906.84;5080058;28;20097;-76
2021/03/11 05:06:14;;;;;;;7.60;4.63;;;8.00;99.90;;;8.49;88.66;98913.66;5076558;28;20055;-78
2021/03/11 05:08:41;;;;;;;7.93;5.00;;;8.00;99.90;;;8.45;88.28;98905.28;5061585;28;20033;-78
2021/03/11 05:11:07;;;;;;;6.80;4.60;;;8.10;99.90;;;8.55;87.47;98912.09;5056937;28;20029;-80
2021/03/11 05:13:33;;;;;;;7.63;5.38;;;8.10;99.90;;;8.56;87.19;98913.72;5056794;28;20056;-79
2021/03/11 05:16:00;;;;;;;8.18;4.85;;;8.10;99.90;;;8.66;87.34;98904.66;5058047;28;20535;-78
2021/03/11 05:18:27;;;;;;;6.78;5.00;;;8.20;99.90;;;8.58;87.65;98894.63;5057629;28;20064;-79
2021/03/11 05:20:54;;;;;;;5.80;3.97;;;8.10;99.90;;;8.61;87.79;98912.53;5057151;28;20117;-77
2021/03/11 05:23:21;;;;;;;7.03;4.70;;;8.10;99.90;;;8.56;88.09;98899.00;5058686;28;20385;-79
2021/03/11 05:25:51;;;;;;;7.95;4.70;;;8.10;99.90;;;8.54;89.01;98918.84;5057113;28;20029;-76
2021/03/11 05:28:17;;;;;;;8.48;5.22;;;8.10;99.90;;;8.46;90.02;98889.38;5056043;28;20033;-77
2021/03/11 05:30:43;;;;;;;7.95;5.43;;;8.00;99.90;;;8.48;90.42;98915.63;5057556;28;20043;-76
2021/03/11 05:33:09;;;;;;;6.22;4.35;;;7.90;99.90;;;8.40;91.07;98913.19;5055889;28;20029;-80
2021/03/11 05:35:35;;;;;;;8.02;5.20;;;7.90;99.90;;;8.32;91.09;98919.88;5057395;28;20100;-78
2021/03/11 05:38:06;;;;;;;9.43;6.18;;;7.90;99.90;;;8.38;91.32;98930.25;5056233;28;20035;-79
2021/03/11 05:40:35;;;;;;;6.88;4.45;;;7.90;99.90;;;8.40;90.77;98921.53;5057627;28;20029;-80
2021/03/11 05:43:07;;;;;;;5.75;4.60;;;7.90;99.90;;;8.38;91.23;98921.91;5057533;28;20029;-77
2021/03/11 05:45:35;;;;;;;10.80;5.53;;;7.90;99.90;;;8.24;92.05;98912.63;5056663;28;20712;-77
2021/03/11 05:48:03;;;;;;;8.88;4.93;;;7.80;99.90;;;8.25;92.66;98919.81;5057025;28;20028;-76
2021/03/11 05:50:29;;;;;;;11.10;4.97;;;7.80;99.90;;;8.26;92.87;98915.81;5056379;28;20037;-77
2021/03/11 05:52:58;;;;;;;7.90;5.15;;;7.80;99.90;;;8.17;93.56;98902.25;5055607;28;20033;-77
2021/03/11 05:55:26;;;;;;;8.35;4.47;;;7.80;99.90;;;8.29;93.52;98885.28;5055764;28;20024;-77
2021/03/11 05:57:52;;;;;;;6.53;4.50;;;7.80;99.90;;;8.28;93.48;98886.47;5057800;28;20431;-78
2021/03/11 06:00:21;;;;;;;7.38;4.43;;;7.80;99.90;;;8.23;94.27;98878.44;5057317;28;20059;-78
2021/03/11 06:02:57;;;;;;;6.78;4.63;;;7.80;99.90;;;8.18;94.27;98878.81;5055834;28;20031;-79
2021/03/11 06:05:25;;;;;;;7.63;4.85;;;7.80;99.90;;;8.20;94.24;98864.50;5058524;28;20536;-80
2021/03/11 06:07:52;;;;;;;6.82;4.53;;;7.80;99.90;;;8.12;94.85;98866.47;5072433;28;20031;-78
2021/03/11 06:10:23;;;;;;;6.60;4.63;;;7.80;99.90;;;8.23;94.01;98864.56;5091869;28;20029;-79
2021/03/11 06:12:52;;;;;;;7.68;4.05;;;7.80;99.90;;;8.23;94.18;98849.84;5076665;28;20422;-78
2021/03/11 06:15:27;;;;;;;6.05;3.92;;;7.80;99.90;;;8.34;94.05;98856.31;5075109;28;20035;-80
2021/03/11 06:17:55;;;;;;;;;;;7.90;99.90;;;8.30;94.16;98852.72;5075569;28;20033;-82
2021/03/11 06:20:21;;;;;;;4.95;3.50;;;7.80;99.90;;;8.29;93.93;98860.25;5073279;28;19915;-82
2021/03/11 06:22:48;;;;;;;6.10;3.85;;;7.90;99.90;;;8.26;94.69;98862.97;5074797;28;20031;-82
2021/03/11 06:25:16;;;;;;;5.88;3.58;;;7.90;99.90;;;8.39;94.00;98853.16;5074552;28;20052;-82
2021/03/11 06:27:42;;;;;;;7.15;4.22;;;7.90;99.90;;;8.44;93.82;98855.59;5074142;28;20025;-80
2021/03/11 06:30:36;;;;;;;6.10;4.15;;;7.90;99.90;;;8.45;93.49;98859.97;5075613;28;20025;-80
2021/03/11 06:33:07;;;;;;;6.95;3.85;;;8.00;99.90;;;8.43;93.70;98863.16;5077401;28;20028;-81
2021/03/11 06:35:40;;;;;;;7.90;4.00;;;8.00;99.90;;;8.51;92.01;98857.63;5081282;28;20106;-81
2021/03/11 06:38:06;;;;;;;8.30;4.07;;;8.10;99.90;;;8.54;92.75;98849.28;5077726;28;20074;-82
2021/03/11 06:40:32;;;;;;;4.50;3.20;;;8.10;99.90;;;8.58;91.93;98864.03;5079060;28;20029;-81
2021/03/11 06:43:13;;;;;;;6.70;3.95;;;8.10;99.90;;;8.61;92.10;98871.59;5078029;28;20380;-78
2021/03/11 06:45:41;;;;;;;5.90;3.95;;;8.10;99.90;;;8.62;91.48;98866.84;5075610;28;20435;-81
2021/03/11 06:48:29;;;;;;;6.10;3.85;;;8.20;99.90;;;8.58;92.15;98861.25;5073308;28;20040;-80
2021/03/11 06:51:03;;;;;;;5.93;3.72;;;8.20;99.90;;;8.70;91.56;98858.13;5074681;28;20032;-83
2021/03/11 06:53:30;;;;;;;5.93;3.28;;;8.20;99.90;;;8.65;91.39;98844.59;5073328;28;20060;-83
2021/03/11 06:56:20;;;;;;;7.20;4.35;;;8.20;99.90;;;8.74;91.14;98836.69;5075806;28;20016;-83
2021/03/11 06:59:03;;;;;;;5.60;3.55;;;8.30;99.90;;;8.74;90.91;98841.47;5075736;28;20082;-83
2021/03/11 07:01:34;;;;;;;6.88;3.45;;;8.30;99.90;;;8.81;90.24;98817.25;5075694;28;20369;-83
2021/03/11 07:04:01;;;;;;;5.93;3.65;;;8.30;99.90;;;8.84;90.23;98812.88;5074300;28;20025;-84
2021/03/11 07:06:37;;;;;;;5.55;3.58;;;8.40;99.90;;;8.90;90.34;98817.69;5076878;28;20032;-81
2021/03/11 07:09:07;;;;;;;5.80;3.63;;;8.40;99.90;;;8.89;89.84;98810.50;5034901;28;20021;-82
2021/03/11 07:11:39;;;;;;;5.43;3.20;;;8.40;99.90;;;8.95;89.60;98792.28;5034526;28;20112;-82
2021/03/11 07:14:05;;;;;;;5.80;4.35;;;8.50;99.90;;;8.99;89.27;98793.06;5032932;28;20037;-80
2021/03/11 07:16:35;;;;;;;5.20;3.50;;;8.50;99.90;;;9.02;88.79;98792.28;5034831;28;20465;-83
2021/03/11 07:19:17;;;;;;;5.93;3.67;;;8.60;99.90;;;9.17;88.83;98786.75;5036204;28;20431;-79
2021/03/11 07:21:55;;;;;;;4.65;3.38;;;8.70;99.90;;;9.18;88.38;98791.94;5040479;28;20362;-81
2021/03/11 07:24:38;;;;;;;5.05;3.53;;;8.70;99.90;;;9.18;88.82;98778.03;5036414;28;20022;-81
2021/03/11 07:27:07;;;;;;;5.45;3.17;;;8.70;99.90;;;9.28;88.17;98766.09;5038852;28;20036;-78
2021/03/11 07:29:34;;;;;;;4.65;3.60;;;8.80;99.90;;;9.26;88.63;98754.56;5039028;28;20110;-82
2021/03/11 07:32:05;;;;;;;4.75;3.00;;;8.80;99.90;;;9.24;89.22;98758.94;5042508;28;20035;-83
2021/03/11 07:34:37;;;;;;;6.55;3.67;;;8.80;99.90;;;9.38;88.99;98750.56;5041354;28;20033;-82
2021/03/11 07:37:04;;;;;;;7.72;3.70;;;8.80;99.90;;;9.39;88.71;98757.75;5038960;28;20030;-79
2021/03/11 07:39:42;;;;;;;4.68;3.50;;;8.90;99.90;;;9.40;89.67;98749.00;5037780;28;20048;-84
2021/03/11 07:42:10;;;;;;;4.70;3.35;;;8.90;99.90;;;9.34;90.18;98758.16;5034659;28;20631;-81
2021/03/11 07:44:40;;;;;;;7.25;3.63;;;8.90;99.90;;;9.29;90.94;98764.91;5032895;28;20037;-81
2021/03/11 07:47:07;;;;;;;4.63;3.15;;;8.80;99.90;;;9.33;91.34;98742.63;5035324;28;20064;-81
2021/03/11 07:49:34;;;;;;;6.70;3.78;;;8.80;99.90;;;9.15;92.84;98744.59;5035018;28;20139;-79
2021/03/11 07:52:03;;;;;;;5.45;3.90;;;8.80;99.90;;;9.17;93.81;98753.34;5034154;28;20025;-81
2021/03/11 07:54:32;;;;;;;6.38;3.67;;;8.70;99.90;;;9.06;93.93;98758.88;5034306;28;20354;-82
2021/03/11 07:56:58;;;;;;;4.97;3.28;;;8.70;99.90;;;9.22;93.65;98759.31;5032958;28;20056;-82
2021/03/11 07:59:25;;;;;;;5.57;3.95;;;8.70;99.90;;;9.21;93.73;98757.75;5034383;28;20021;-82
2021/03/11 08:02:00;;;;;;;5.10;3.63;;;8.70;99.90;;;9.14;93.95;98746.56;5033079;28;20053;-83
2021/03/11 08:04:34;;;;;;;4.90;3.67;;;8.70;99.90;;;9.19;93.36;98756.50;5032186;28;20160;-80
2021/03/11 08:07:26;;;;;;;5.18;3.10;;;8.80;99.90;;;9.46;92.62;98758.56;5054059;28;20032;-80
2021/03/11 08:09:59;;;;;;;4.13;3.42;;;8.90;99.90;;;9.61;92.24;98753.00;5057260;28;20024;-81
2021/03/11 08:12:41;;;;;;;4.03;2.85;;;9.00;99.90;;;9.84;90.46;98748.63;5054585;28;20037;-83
2021/03/11 08:15:28;;;;;;;5.22;3.03;;;9.30;99.90;;;10.16;88.90;98742.25;5055969;28;20033;-81
2021/03/11 08:17:54;;;;;;;4.57;3.10;;;9.50;99.90;;;10.32;88.19;98743.41;5058394;28;20025;-77
2021/03/11 08:20:20;;;;;;;6.88;3.35;;;9.70;99.90;;;10.48;87.92;98729.00;5057852;28;20021;-79
2021/03/11 08:22:52;;;;;;;5.88;2.95;;;9.90;99.90;;;10.75;87.17;98720.94;5055831;28;20101;-80
2021/03/11 08:25:36;;;;;;;4.00;2.80;;;10.20;99.90;;;11.02;84.69;98714.41;5059191;28;20021;-81
2021/03/11 08:28:24;;;;;;;3.53;2.45;;;10.50;99.90;;;11.23;84.59;98712.69;5074612;28;20013;-79
2021/03/11 08:30:55;;;;;;;4.43;2.70;;;10.60;99.90;;;11.17;83.88;98708.75;5049081;28;20067;-79
2021/03/11 08:33:21;;;;;;;5.07;2.78;;;10.70;99.90;;;11.25;82.87;98687.91;5055133;28;20112;-79
2021/03/11 08:35:53;;;;;;;4.97;2.78;;;10.70;99.90;;;11.20;83.72;98700.34;5053206;28;20111;-79
2021/03/11 08:38:19;;;;;;;6.47;3.17;;;10.70;99.90;;;11.09;83.71;98688.44;5055394;28;20025;-80
2021/03/11 08:40:58;;;;;;;4.20;2.58;;;10.50;99.90;;;10.84;84.80;98701.75;5054174;28;20174;-79
2021/03/11 08:43:36;;;;;;;6.03;2.80;;;10.40;99.90;;;10.91;85.27;98679.38;5056391;28;20040;-81
2021/03/11 08:46:18;;;;;;;4.60;3.00;;;10.30;99.90;;;10.73;86.33;98687.81;5056093;28;20040;-80
2021/03/11 08:48:57;;;;;;;4.50;3.25;;;10.20;99.90;;;10.64;87.37;98678.31;5053516;28;20487;-81
2021/03/11 08:51:24;;;;;;;9.35;2.95;;;10.10;99.90;;;10.56;86.90;98678.34;5052062;28;20037;-80
2021/03/11 08:53:51;;;;;;;4.30;2.45;;;10.00;99.90;;;10.54;86.54;98677.94;5052126;28;20033;-81
2021/03/11 08:56:17;;;;;;;4.07;2.80;;;10.00;99.90;;;10.55;85.85;98668.38;5056129;28;20090;-81
2021/03/11 08:59:11;;;;;;;3.85;2.38;;;10.00;99.90;;;10.68;85.31;98651.97;5060044;28;20110;-80
2021/03/11 09:01:55;;;;;;;5.10;2.85;;;10.10;99.90;;;10.71;85.13;98650.34;5052843;28;20496;-81
2021/03/11 09:04:20;;;;;;;5.97;3.60;;;10.10;99.90;;;10.69;84.69;98661.91;5053393;28;20028;-81
2021/03/11 09:07:28;;;;;;;5.55;3.10;;;10.30;99.90;;;10.89;84.84;98673.38;5053211;28;20040;-82
2021/03/11 09:09:54;;;;;;;4.43;2.88;;;10.20;99.90;;;10.91;85.56;98662.63;5077529;28;20055;-79
2021/03/11 09:12:32;;;;;;;5.60;3.40;;;10.30;99.90;;;11.09;84.20;98666.06;5077786;28;20201;-82
2021/03/11 09:15:01;;;;;;;5.75;3.22;;;10.40;99.90;;;11.17;84.21;98647.28;5077011;28;20066;-80
2021/03/11 09:17:32;;;;;;;7.70;3.13;;;10.60;99.90;;;11.30;83.90;98628.81;5078300;28;20032;-81
2021/03/11 09:20:04;;;;;;;5.93;2.95;;;10.70;99.90;;;11.36;82.49;98636.34;5077427;28;20480;-79
2021/03/11 09:22:47;;;;;;;7.82;3.22;;;10.80;99.90;;;11.61;82.25;98622.94;5076293;28;20494;-81
2021/03/11 09:25:24;;;;;;;6.15;2.75;;;10.90;99.90;;;11.74;80.25;98637.22;5077146;28;20033;-83
2021/03/11 09:28:02;;;;;;;4.85;2.10;;;11.10;99.90;;;11.87;77.80;98629.91;5075360;28;20032;-84
2021/03/11 09:30:41;;;;;;;5.28;2.05;;;11.20;99.90;;;11.76;76.67;98622.81;5075941;28;20507;-81
2021/03/11 09:33:20;;;;;;;8.20;2.03;;;11.30;99.90;;;11.71;77.85;98631.66;5077410;28;20127;-81
2021/03/11 09:35:51;;;;;;;5.38;2.35;;;11.20;99.90;;;11.72;77.90;98650.06;5081659;28;20547;-83
2021/03/11 09:38:27;;;;;;;8.35;2.25;;;11.10;99.90;;;11.58;77.92;98656.53;5074890;28;20442;-81
2021/03/11 09:40:58;;;;;;;5.30;1.77;;;11.00;99.90;;;11.50;78.11;98657.78;5075035;28;20039;-82
2021/03/11 09:43:35;;;;;;;5.47;1.75;;;11.00;99.90;;;11.41;78.94;98666.66;5076633;28;20112;-80
2021/03/11 09:46:23;;;;;;;8.63;1.80;;;10.90;99.90;;;11.23;80.64;98654.00;5076477;28;20029;-81
2021/03/11 09:48:56;;;;;;;8.05;1.75;;;10.80;99.90;;;11.02;81.69;98669.72;5074674;28;20431;-80
2021/03/11 09:51:27;;;;;;;9.90;2.53;;;10.60;99.90;;;10.94;82.14;98653.41;5075623;28;20024;-84
2021/03/11 09:54:06;;;;;;;7.85;1.42;;;10.50;99.90;;;10.86;82.66;98629.50;5075577;28;20032;-80
2021/03/11 09:56:46;;;;;;;9.68;2.03;;;10.50;99.90;;;10.87;81.96;98634.72;5076129;28;20316;-80
2021/03/11 09:59:16;;;;;;;9.05;2.17;;;10.40;99.90;;;10.83;80.25;98644.28;5074977;28;20028;-83
2021/03/11 10:01:53;;;;;;;9.65;1.75;;;10.40;99.90;;;10.65;79.42;98635.25;5075181;28;20024;-81
2021/03/11 10:04:29;;;;;;;10.05;1.77;;;10.30;99.90;;;10.68;79.28;98634.41;5075461;28;20052;-81
2021/03/11 10:07:01;;;;;;;;;;;10.20;99.90;;;10.67;80.02;98602.91;5072722;28;20029;-82
2021/03/11 10:09:45;;;;;;;8.82;1.83;;;10.20;99.90;;;10.91;79.50;98607.56;5055741;28;19909;-84
2021/03/11 10:12:12;;;;;;;8.63;1.77;;;10.40;99.90;;;11.60;76.39;98592.59;5057437;28;20044;-85
2021/03/11 10:14:38;;;;;;;11.77;2.42;;;10.90;99.90;;;12.22;74.67;98630.72;5057986;28;20172;-84
2021/03/11 10:17:07;;;;;;;8.18;1.88;;;11.50;99.90;;;12.35;71.84;98598.19;5058758;28;20028;-85
2021/03/11 10:19:36;;;;;;;7.95;1.70;;;11.90;99.90;;;12.69;71.32;98610.91;5055387;28;20055;-82
2021/03/11 10:22:17;;;;;;;7.45;1.77;;;12.10;99.90;;;12.79;71.29;98583.97;5056802;28;20481;-82
2021/03/11 10:24:51;;;;;;;13.15;2.50;;;12.20;99.90;;;13.03;70.92;98582.81;5057263;28;20115;-83
2021/03/11 10:27:34;;;;;;;11.43;2.45;;;12.40;99.90;;;13.27;69.46;98580.81;5057361;28;20123;-82
2021/03/11 10:30:24;;;;;;;11.07;2.22;;;12.70;99.90;;;13.27;68.85;98594.03;5058213;28;20025;-81
2021/03/11 10:33:03;;;;;;;15.07;2.88;;;12.80;99.90;;;13.26;69.13;98592.47;5055983;28;20033;-80
2021/03/11 10:35:44;;;;;;;12.05;2.47;;;12.80;99.90;;;13.84;68.29;98600.25;5062293;28;20025;-82
2021/03/11 10:38:30;;;;;;;10.45;2.38;;;13.10;99.90;;;13.66;68.42;98586.56;5061494;28;20108;-85
2021/03/11 10:41:16;;;;;;;17.33;3.63;;;13.20;99.90;;;13.43;67.92;98600.56;5060583;28;20025;-84
2021/03/11 10:43:45;;;;;;;9.70;2.70;;;13.10;99.90;;;13.81;67.79;98603.91;5061406;28;20056;-81